createdAt,value
2023-01-27T00:06:38.155Z,64.40
2023-01-27T00:12:00.287Z,60.75
2023-01-27T00:17:04.901Z,60.00
2023-01-27T00:22:28.928Z,63.03
2023-01-27T00:27:34.599Z,62.53
2023-01-27T00:32:58.609Z,58.83
2023-01-27T00:38:04.339Z,59.28
2023-01-27T00:43:10.263Z,62.22
2023-01-27T00:53:20.512Z,51.23
2023-01-27T00:58:24.842Z,56.10
2023-01-27T01:03:31.530Z,59.42
2023-01-27T01:08:39.119Z,50.05
2023-01-27T01:13:44.555Z,57.72
2023-01-27T01:18:49.935Z,55.10
2023-01-27T01:23:56.249Z,56.00
2023-01-27T01:29:01.008Z,49.75
2023-01-27T01:34:05.852Z,49.15
2023-01-27T01:44:24.007Z,45.17
2023-01-27T01:49:34.409Z,46.92
2023-01-27T01:54:44.710Z,42.03
2023-01-27T01:59:55.404Z,41.83
2023-01-27T02:05:05.523Z,41.05
2023-01-27T02:10:12.588Z,40.33
2023-01-27T02:15:17.878Z,39.83
2023-01-27T02:20:33.712Z,38.03
2023-01-27T02:25:52.172Z,39.97
2023-01-27T02:30:57.919Z,41.65
2023-01-27T02:36:08.508Z,36.78
2023-01-27T02:41:21.996Z,39.47
2023-01-27T02:46:27.400Z,36.28
2023-01-27T02:51:31.990Z,40.95
2023-01-27T02:56:38.832Z,42.08
2023-01-27T03:01:44.615Z,43.42
2023-01-27T03:12:12.309Z,41.03
2023-01-27T03:17:34.284Z,44.97
2023-01-27T03:22:39.170Z,47.65
2023-01-27T03:27:45.820Z,45.05
2023-01-27T03:33:04.040Z,50.53
2023-01-27T03:38:44.678Z,50.50
2023-01-27T03:44:08.684Z,48.03
2023-01-27T03:49:13.402Z,48.42
2023-01-27T03:54:17.587Z,46.63
2023-01-27T04:04:45.618Z,49.50
2023-01-27T04:09:50.340Z,44.95
2023-01-27T04:20:00.563Z,47.92
2023-01-27T04:25:06.517Z,42.67
2023-01-27T04:30:14.194Z,46.08
2023-01-27T04:35:21.545Z,43.55
2023-01-27T04:40:27.720Z,41.78
2023-01-27T04:50:38.173Z,41.13
2023-01-27T04:55:44.878Z,38.45
2023-01-27T05:00:50.645Z,37.95
2023-01-27T05:05:54.985Z,38.97
2023-01-27T05:16:11.863Z,38.10
2023-01-27T05:21:18.887Z,40.22
2023-01-27T05:26:26.102Z,48.60
2023-01-27T05:31:32.835Z,49.03
2023-01-27T05:36:37.462Z,39.90
2023-01-27T05:41:42.654Z,45.78
2023-01-27T05:46:48.596Z,39.60
2023-01-27T05:51:53.136Z,45.00
2023-01-27T05:56:57.573Z,54.05
2023-01-27T06:02:03.200Z,55.97
2023-01-27T06:07:07.657Z,52.55
2023-01-27T06:12:11.890Z,53.20
2023-01-27T06:17:17.935Z,60.33
2023-01-27T06:22:22.174Z,62.70
2023-01-27T06:27:27.101Z,55.35
2023-01-27T06:32:32.687Z,60.47
2023-01-27T06:37:37.544Z,61.13
2023-01-27T06:42:44.565Z,64.88
2023-01-27T06:47:57.053Z,57.42
2023-01-27T06:53:03.071Z,64.03
2023-01-27T06:58:07.288Z,55.60
2023-01-27T07:08:17.986Z,51.22
2023-01-27T07:13:22.565Z,47.55
2023-01-27T07:23:32.839Z,47.95
2023-01-27T07:28:37.357Z,43.92
2023-01-27T07:38:51.958Z,54.72
2023-01-27T07:43:56.417Z,46.45
2023-01-27T07:49:05.451Z,46.83
2023-01-27T07:54:10.089Z,50.25
2023-01-27T07:59:14.783Z,47.50
2023-01-27T08:04:20.723Z,50.47
2023-01-27T08:09:25.180Z,48.45
2023-01-27T08:14:29.630Z,48.17
2023-01-27T08:19:35.433Z,47.90
2023-01-27T08:24:39.667Z,71.78
2023-01-27T08:29:44.980Z,47.60
2023-01-27T08:34:50.990Z,49.72
2023-01-27T08:39:55.256Z,50.75
2023-01-27T08:45:00.489Z,49.58
2023-01-27T08:50:08.037Z,44.45
2023-01-27T08:55:12.550Z,51.92
2023-01-27T09:00:17.838Z,46.90
2023-01-27T09:05:23.789Z,48.40
2023-01-27T09:10:28.084Z,51.25
2023-01-27T09:15:32.507Z,51.22
2023-01-27T09:20:38.341Z,46.05
2023-01-27T09:25:43.011Z,49.13
2023-01-27T09:30:48.152Z,41.33
2023-01-27T09:35:58.911Z,49.67
2023-01-27T09:41:41.305Z,50.20
2023-01-27T09:47:15.025Z,45.60
2023-01-27T09:52:47.869Z,47.95
2023-01-27T09:58:05.045Z,43.67
2023-01-27T10:03:38.062Z,41.72
2023-01-27T10:09:35.664Z,38.08
2023-01-27T10:14:49.424Z,46.50
2023-01-27T10:20:16.000Z,44.25
2023-01-27T10:25:38.388Z,46.45
2023-01-27T10:30:51.871Z,50.03
2023-01-27T10:36:01.195Z,44.10
2023-01-27T10:41:25.786Z,43.67
2023-01-27T10:46:41.996Z,49.30
2023-01-27T10:51:54.659Z,44.00
2023-01-27T10:57:07.656Z,47.78
2023-01-27T11:02:24.489Z,42.13
2023-01-27T11:07:30.379Z,40.78
2023-01-27T11:12:40.812Z,35.20
2023-01-27T11:17:52.522Z,45.08
2023-01-27T11:23:04.630Z,40.50
2023-01-27T11:28:26.680Z,36.42
2023-01-27T11:33:44.888Z,32.05
2023-01-27T11:38:49.448Z,30.13
2023-01-27T11:43:55.374Z,26.70
2023-01-27T11:49:00.566Z,28.88
2023-01-27T11:54:13.559Z,36.05
2023-01-27T11:59:24.543Z,32.55
2023-01-27T12:04:51.722Z,29.95
2023-01-27T12:09:56.108Z,26.30
2023-01-27T12:15:05.709Z,23.95
2023-01-27T12:20:31.725Z,23.45
2023-01-27T12:25:50.408Z,27.58
2023-01-27T12:31:04.575Z,20.83
2023-01-27T12:36:16.178Z,19.20
2023-01-27T12:41:28.061Z,25.30
2023-01-27T12:46:34.703Z,28.02
2023-01-27T12:51:44.984Z,24.65
2023-01-27T12:56:49.772Z,25.60
2023-01-27T13:02:12.189Z,27.10
2023-01-27T13:07:20.276Z,27.48
2023-01-27T13:12:27.945Z,25.17
2023-01-27T13:17:43.407Z,27.08
2023-01-27T13:22:52.706Z,25.10
2023-01-27T13:28:00.787Z,26.58
2023-01-27T13:33:25.980Z,24.65
2023-01-27T13:38:42.812Z,32.53
2023-01-27T13:43:59.080Z,34.67
2023-01-27T13:49:18.786Z,36.40
2023-01-27T13:54:23.819Z,38.03
2023-01-27T13:59:50.354Z,38.08
2023-01-27T14:05:24.892Z,49.67
2023-01-27T14:10:39.240Z,50.45
2023-01-27T14:15:54.996Z,46.25
2023-01-27T14:21:39.303Z,54.83
2023-01-27T14:26:54.276Z,51.65
2023-01-27T14:32:08.972Z,50.83
2023-01-27T14:42:37.379Z,45.05
2023-01-27T14:47:53.665Z,46.07
2023-01-27T14:53:19.498Z,49.90
2023-01-27T14:58:45.894Z,49.10
2023-01-27T15:04:18.536Z,51.67
2023-01-27T15:09:43.429Z,58.85
2023-01-27T15:20:34.935Z,56.60
2023-01-27T15:25:45.457Z,54.28
2023-01-27T15:31:26.279Z,48.10
2023-01-27T15:36:37.451Z,54.90
2023-01-27T15:41:55.232Z,49.03
2023-01-27T15:47:09.530Z,49.33
2023-01-27T15:57:36.773Z,50.80
2023-01-27T16:02:47.060Z,45.65
2023-01-27T16:07:54.692Z,46.25
2023-01-27T16:13:22.192Z,44.80
2023-01-27T16:18:42.227Z,45.78
2023-01-27T16:23:56.291Z,45.33
2023-01-27T16:29:21.895Z,47.72
2023-01-27T16:34:34.340Z,52.95
2023-01-27T16:39:47.111Z,54.95
2023-01-27T16:44:54.622Z,60.45
2023-01-27T16:50:00.573Z,53.97
2023-01-27T16:55:05.748Z,44.15
2023-01-27T17:00:23.303Z,49.35
2023-01-27T17:05:28.590Z,43.92
2023-01-27T17:10:35.268Z,53.30
2023-01-27T17:15:43.377Z,50.10
2023-01-27T17:20:48.955Z,48.72
2023-01-27T17:25:53.810Z,49.33
2023-01-27T17:31:08.041Z,45.97
2023-01-27T17:36:13.563Z,42.55
2023-01-27T17:41:36.837Z,44.72
2023-01-27T17:46:43.183Z,42.92
2023-01-27T17:51:51.500Z,43.58
2023-01-27T17:57:06.081Z,43.45
2023-01-27T18:07:22.496Z,48.55
2023-01-27T18:17:40.563Z,61.83
2023-01-27T18:22:46.258Z,54.95
2023-01-27T18:27:53.903Z,47.28
2023-01-27T18:33:06.921Z,44.30
2023-01-27T18:38:28.475Z,46.95
2023-01-27T18:43:33.975Z,42.65
2023-01-27T18:48:40.257Z,43.42
2023-01-27T18:53:45.247Z,44.22
2023-01-27T18:58:49.883Z,49.10
2023-01-27T19:03:57.538Z,47.88
2023-01-27T19:09:04.790Z,52.05
2023-01-27T19:14:09.284Z,50.47
2023-01-27T19:19:15.107Z,56.55
2023-01-27T19:24:19.391Z,51.50
2023-01-27T19:34:29.371Z,56.13
2023-01-27T19:39:33.806Z,55.55
2023-01-27T19:44:38.779Z,61.97
2023-01-27T19:49:44.684Z,67.25
2023-01-27T19:54:49.317Z,46.50
2023-01-27T19:59:55.488Z,49.88
2023-01-27T20:05:02.581Z,51.15
2023-01-27T20:10:08.983Z,54.53
2023-01-27T20:15:18.977Z,50.30
2023-01-27T20:20:25.981Z,48.83
2023-01-27T20:25:30.766Z,58.88
2023-01-27T20:35:40.956Z,54.87
2023-01-27T20:40:45.499Z,54.67
2023-01-27T20:45:49.878Z,47.35
2023-01-27T20:51:01.617Z,55.53
2023-01-27T20:56:06.781Z,60.55
2023-01-27T21:01:14.911Z,62.97
2023-01-27T21:06:21.239Z,57.28
2023-01-27T21:11:25.903Z,59.05
2023-01-27T21:16:30.464Z,64.22
2023-01-27T21:26:40.822Z,69.95
2023-01-27T21:31:45.765Z,65.38
2023-01-27T21:36:51.500Z,64.25
2023-01-27T21:42:13.302Z,60.10
2023-01-27T21:47:19.950Z,63.03
2023-01-27T21:52:27.499Z,72.97
2023-01-27T21:57:32.378Z,74.28
2023-01-27T22:02:37.080Z,69.90
2023-01-27T22:07:42.939Z,74.57
2023-01-27T22:12:49.287Z,73.78
2023-01-27T22:17:54.839Z,77.25
2023-01-27T22:23:00.449Z,72.90
2023-01-27T22:28:04.867Z,65.93
2023-01-27T22:38:15.097Z,70.40
2023-01-27T22:43:19.563Z,75.10
2023-01-27T22:48:23.884Z,72.72
2023-01-27T22:53:29.732Z,62.78
2023-01-27T22:58:34.362Z,81.07
2023-01-27T23:03:38.849Z,73.53
2023-01-27T23:13:49.042Z,75.78
2023-01-27T23:18:53.475Z,72.55
2023-01-27T23:23:59.541Z,73.47
2023-01-27T23:29:05.181Z,61.10
2023-01-27T23:34:13.120Z,68.32
2023-01-27T23:39:19.026Z,60.08
2023-01-27T23:44:23.644Z,64.22
2023-01-27T23:54:34.537Z,54.90
2023-01-27T23:59:39.047Z,70.05
